Time;durP1;ratioP1;P1;durP2;ratioP2;P2;SDS_P1;SDS_P2;PMS_P1;PMS_P2;Temp;Humidity;BMP_temperature;BMP_pressure;BME280_temperature;BME280_humidity;BME280_pressure;Samples;Min_cycle;Max_cycle;Signal;HPM_P1;HPM_P2
2021/12/19 00:00:48;;;;;;;55.53;29.97;;;;;;;;;;5075389;28;20448;-66
2021/12/19 00:11:00;;;;;;;43.95;26.23;;;;;;;;;;5075457;28;20207;-67
2021/12/19 00:13:27;;;;;;;41.90;26.05;;;;;;;;;;5075364;28;20206;-67
2021/12/19 00:15:53;;;;;;;43.63;26.90;;;;;;;;;;5075300;28;20160;-67
2021/12/19 00:18:19;;;;;;;40.20;24.80;;;;;;;;;;5075262;28;20168;-67
2021/12/19 00:20:45;;;;;;;45.70;26.60;;;;;;;;;;5075097;28;20203;-66
2021/12/19 00:23:11;;;;;;;52.10;27.73;;;;;;;;;;5075112;28;20174;-66
2021/12/19 00:25:38;;;;;;;42.47;25.42;;;;;;;;;;5075071;28;20951;-66
2021/12/19 00:28:04;;;;;;;42.58;25.95;;;;;;;;;;5074976;28;20168;-66
2021/12/19 00:30:33;;;;;;;42.30;25.88;;;;;;;;;;5075041;28;20195;-67
2021/12/19 00:32:59;;;;;;;42.67;27.10;;;;;;;;;;5074912;28;20193;-67
2021/12/19 00:35:26;;;;;;;42.60;26.40;;;;;;;;;;5074886;28;20164;-66
2021/12/19 00:37:52;;;;;;;50.72;28.55;;;;;;;;;;5074778;28;20168;-67
2021/12/19 00:40:19;;;;;;;52.25;27.70;;;;;;;;;;5074875;28;20570;-66
2021/12/19 00:42:51;;;;;;;51.88;26.73;;;;;;;;;;5074761;28;20188;-67
2021/12/19 00:45:30;;;;;;;40.47;23.90;;;;;;;;;;5074918;28;20183;-67
2021/12/19 00:47:56;;;;;;;36.25;22.55;;;;;;;;;;5074538;28;20619;-66
2021/12/19 00:50:22;;;;;;;35.15;20.75;;;;;;;;;;5073303;28;20183;-66
2021/12/19 00:52:49;;;;;;;29.55;19.90;;;;;;;;;;5074524;28;20620;-66
2021/12/19 00:55:15;;;;;;;36.90;22.98;;;;;;;;;;5074433;28;20179;-66
2021/12/19 00:57:41;;;;;;;41.35;23.83;;;;;;;;;;5074431;28;20175;-66
2021/12/19 01:00:08;;;;;;;37.20;21.77;;;;;;;;;;5074366;28;20208;-65
2021/12/19 01:02:34;;;;;;;37.35;22.85;;;;;;;;;;5074368;28;20497;-66
2021/12/19 01:05:01;;;;;;;40.47;23.10;;;;;;;;;;5074263;28;20175;-66
2021/12/19 01:07:27;;;;;;;38.42;23.35;;;;;;;;;;5074262;28;20678;-66
2021/12/19 01:09:53;;;;;;;39.33;23.03;;;;;;;;;;5074089;28;20258;-66
2021/12/19 01:12:20;;;;;;;35.25;22.80;;;;;;;;;;5072807;28;20430;-66
2021/12/19 01:14:46;;;;;;;40.15;23.60;;;;;;;;;;5072822;28;20178;-67
2021/12/19 01:17:12;;;;;;;36.80;22.10;;;;;;;;;;5074050;28;20164;-66
2021/12/19 01:19:38;;;;;;;44.03;26.00;;;;;;;;;;5073946;28;20952;-66
2021/12/19 01:22:05;;;;;;;45.28;27.90;;;;;;;;;;5073493;28;20198;-66
2021/12/19 01:24:31;;;;;;;51.45;28.20;;;;;;;;;;5073930;28;20258;-66
2021/12/19 01:26:57;;;;;;;69.50;34.78;;;;;;;;;;5073870;28;20174;-66
2021/12/19 01:29:23;;;;;;;53.25;29.27;;;;;;;;;;5073865;28;20176;-66
2021/12/19 01:31:49;;;;;;;44.15;25.60;;;;;;;;;;5073814;28;20172;-66
2021/12/19 01:34:15;;;;;;;46.30;26.87;;;;;;;;;;5073772;28;20225;-67
2021/12/19 01:36:41;;;;;;;48.93;25.37;;;;;;;;;;5073999;28;20449;-66
2021/12/19 01:39:08;;;;;;;43.42;27.02;;;;;;;;;;5073647;28;20457;-66
2021/12/19 01:41:34;;;;;;;53.42;28.63;;;;;;;;;;5072430;28;20183;-67
2021/12/19 01:44:00;;;;;;;49.27;27.80;;;;;;;;;;5073697;28;20233;-66
2021/12/19 01:46:26;;;;;;;44.72;26.92;;;;;;;;;;5073663;28;20492;-67
2021/12/19 01:48:52;;;;;;;51.60;27.20;;;;;;;;;;5073682;28;20199;-66
2021/12/19 01:51:18;;;;;;;59.50;30.70;;;;;;;;;;5073580;28;20430;-66
2021/12/19 01:53:44;;;;;;;42.00;26.00;;;;;;;;;;5073566;28;20757;-66
2021/12/19 01:56:10;;;;;;;48.53;27.00;;;;;;;;;;5073566;28;20442;-66
2021/12/19 01:58:37;;;;;;;44.43;26.30;;;;;;;;;;5073438;28;20400;-66
2021/12/19 02:01:04;;;;;;;40.70;24.35;;;;;;;;;;5073489;28;20402;-66
2021/12/19 02:03:30;;;;;;;40.97;25.10;;;;;;;;;;5073402;28;20533;-66
2021/12/19 02:05:56;;;;;;;41.97;25.57;;;;;;;;;;5073379;28;20246;-66
2021/12/19 02:08:22;;;;;;;37.75;24.80;;;;;;;;;;5073457;28;20381;-66
2021/12/19 02:10:48;;;;;;;40.03;23.90;;;;;;;;;;5073212;28;20227;-66
2021/12/19 02:13:14;;;;;;;37.67;23.33;;;;;;;;;;5071997;28;20203;-66
2021/12/19 02:15:41;;;;;;;40.80;24.05;;;;;;;;;;5073320;28;20459;-66
2021/12/19 02:18:09;;;;;;;37.40;23.20;;;;;;;;;;5073572;28;20160;-66
2021/12/19 02:20:36;;;;;;;42.45;24.42;;;;;;;;;;5073472;28;20217;-67
2021/12/19 02:23:02;;;;;;;40.38;23.75;;;;;;;;;;5073256;28;20164;-66
2021/12/19 02:25:29;;;;;;;40.95;25.10;;;;;;;;;;5073305;28;20255;-66
2021/12/19 02:27:55;;;;;;;40.70;24.85;;;;;;;;;;5073272;28;20207;-67
2021/12/19 02:30:21;;;;;;;38.40;22.25;;;;;;;;;;5073202;28;20187;-66
2021/12/19 02:32:47;;;;;;;38.20;22.85;;;;;;;;;;5073267;28;20167;-66
2021/12/19 02:35:17;;;;;;;40.30;23.30;;;;;;;;;;5077069;28;20168;-65
2021/12/19 02:48:20;;;;;;;33.25;19.13;;;;;;;;;;5076951;28;20163;-66
2021/12/19 02:50:49;;;;;;;34.23;20.50;;;;;;;;;;5077300;28;20168;-65
2021/12/19 02:53:22;;;;;;;27.65;17.70;;;;;;;;;;5076979;28;20508;-65
2021/12/19 02:55:48;;;;;;;27.98;18.77;;;;;;;;;;5076861;28;20160;-65
2021/12/19 02:58:14;;;;;;;29.80;19.17;;;;;;;;;;5076850;28;20254;-66
2021/12/19 03:00:41;;;;;;;26.60;18.10;;;;;;;;;;5076747;28;20465;-65
2021/12/19 03:03:07;;;;;;;28.52;17.77;;;;;;;;;;5076658;28;20373;-65
2021/12/19 03:05:33;;;;;;;28.40;17.73;;;;;;;;;;5076606;28;20167;-65
2021/12/19 03:08:02;;;;;;;30.08;18.60;;;;;;;;;;5076558;28;20168;-65
2021/12/19 03:18:17;;;;;;;23.10;15.98;;;;;;;;;;5076692;28;20432;-66
2021/12/19 03:20:43;;;;;;;25.92;16.52;;;;;;;;;;5076273;28;20213;-66
2021/12/19 03:23:11;;;;;;;28.80;16.85;;;;;;;;;;5076276;28;20175;-65
2021/12/19 03:25:37;;;;;;;28.33;16.20;;;;;;;;;;5076292;28;20176;-66
2021/12/19 03:28:04;;;;;;;26.90;18.20;;;;;;;;;;5076161;28;20611;-66
2021/12/19 03:30:31;;;;;;;28.35;17.77;;;;;;;;;;5076189;28;20168;-66
2021/12/19 03:32:57;;;;;;;28.73;17.60;;;;;;;;;;5076150;28;20229;-65
2021/12/19 03:35:24;;;;;;;26.48;16.17;;;;;;;;;;5074789;28;20232;-67
2021/12/19 03:37:51;;;;;;;22.83;15.10;;;;;;;;;;5076036;28;20163;-65
2021/12/19 03:40:23;;;;;;;21.38;14.60;;;;;;;;;;5075921;28;20654;-65
2021/12/19 03:42:50;;;;;;;21.48;14.10;;;;;;;;;;5076079;28;20164;-66
2021/12/19 03:45:18;;;;;;;25.67;16.83;;;;;;;;;;5075496;28;20171;-67
2021/12/19 03:47:45;;;;;;;23.90;16.23;;;;;;;;;;5076338;28;20164;-66
2021/12/19 03:50:12;;;;;;;25.67;16.15;;;;;;;;;;5076118;28;20623;-65
2021/12/19 03:52:38;;;;;;;19.58;13.88;;;;;;;;;;5076280;28;20174;-66
2021/12/19 03:55:05;;;;;;;14.73;12.07;;;;;;;;;;5075911;28;20171;-65
2021/12/19 03:57:31;;;;;;;19.30;13.15;;;;;;;;;;5075729;28;20204;-66
2021/12/19 03:59:57;;;;;;;21.93;13.90;;;;;;;;;;5075646;28;20317;-65
2021/12/19 04:02:27;;;;;;;22.37;14.40;;;;;;;;;;5075588;28;21060;-65
2021/12/19 04:04:54;;;;;;;19.85;13.68;;;;;;;;;;5075499;28;20406;-65
2021/12/19 04:07:20;;;;;;;23.25;14.10;;;;;;;;;;5075472;28;20200;-65
2021/12/19 04:09:47;;;;;;;20.58;14.27;;;;;;;;;;5075240;28;20318;-65
2021/12/19 04:12:13;;;;;;;24.98;15.85;;;;;;;;;;5074092;28;20246;-65
2021/12/19 04:14:39;;;;;;;21.58;15.20;;;;;;;;;;5075384;28;20699;-65
2021/12/19 04:17:05;;;;;;;22.33;14.53;;;;;;;;;;5075393;28;20171;-66
2021/12/19 04:19:32;;;;;;;21.08;15.25;;;;;;;;;;5075427;28;20470;-65
2021/12/19 04:21:59;;;;;;;49.38;20.60;;;;;;;;;;5073820;28;20179;-65
2021/12/19 04:24:26;;;;;;;24.10;14.80;;;;;;;;;;5075125;28;20176;-65
2021/12/19 04:26:52;;;;;;;21.33;14.20;;;;;;;;;;5075068;28;20179;-65
2021/12/19 04:29:18;;;;;;;19.80;14.30;;;;;;;;;;5075008;28;20183;-65
2021/12/19 04:31:44;;;;;;;25.13;16.33;;;;;;;;;;5075010;28;20406;-65
2021/12/19 04:34:13;;;;;;;41.03;19.37;;;;;;;;;;5074913;28;20428;-65
2021/12/19 04:36:41;;;;;;;30.52;17.15;;;;;;;;;;5074796;28;20377;-65
2021/12/19 04:39:22;;;;;;;40.35;21.02;;;;;;;;;;5074989;28;20200;-66
2021/12/19 04:42:20;;;;;;;38.17;19.88;;;;;;;;;;5074887;28;20171;-66
2021/12/19 04:50:58;;;;;;;37.97;20.38;;;;;;;;;;5074532;28;20223;-66
2021/12/19 04:53:15;;;;;;;38.38;18.95;;;;;;;;;;5074535;28;20630;-65
2021/12/19 05:06:02;;;;;;;34.90;19.90;;;;;;;;;;5074531;28;20198;-65
2021/12/19 05:14:21;;;;;;;26.85;15.88;;;;;;;;;;5074364;28;20209;-65
2021/12/19 05:16:48;;;;;;;27.83;16.77;;;;;;;;;;5074102;28;20156;-65
2021/12/19 05:19:31;;;;;;;24.63;16.10;;;;;;;;;;5073977;28;20697;-65
2021/12/19 05:22:01;;;;;;;40.55;21.30;;;;;;;;;;5074052;28;20547;-65
2021/12/19 05:27:03;;;;;;;31.80;21.02;;;;;;;;;;5074219;28;20159;-65
2021/12/19 05:29:29;;;;;;;31.77;19.60;;;;;;;;;;5073902;28;20182;-66
2021/12/19 05:31:55;;;;;;;25.60;16.90;;;;;;;;;;5073874;28;20247;-65
2021/12/19 05:34:21;;;;;;;24.00;17.20;;;;;;;;;;5073812;28;20839;-65
2021/12/19 05:47:36;;;;;;;24.15;15.35;;;;;;;;;;5073930;28;20160;-66
2021/12/19 05:50:02;;;;;;;20.42;13.63;;;;;;;;;;5073640;28;20194;-65
2021/12/19 05:52:28;;;;;;;14.20;10.63;;;;;;;;;;5073594;28;20243;-65
2021/12/19 05:54:54;;;;;;;15.60;12.10;;;;;;;;;;5073570;28;20388;-66
2021/12/19 05:57:20;;;;;;;17.35;12.23;;;;;;;;;;5073545;28;20164;-66
2021/12/19 05:59:46;;;;;;;19.80;13.27;;;;;;;;;;5073696;28;20257;-66
2021/12/19 06:02:12;;;;;;;22.50;15.27;;;;;;;;;;5073497;28;20172;-66
2021/12/19 06:04:38;;;;;;;23.37;15.40;;;;;;;;;;5073529;28;20392;-66
2021/12/19 06:07:04;;;;;;;23.30;15.93;;;;;;;;;;5073249;28;20869;-66
2021/12/19 06:09:30;;;;;;;24.75;14.95;;;;;;;;;;5073374;28;20682;-65
2021/12/19 06:11:56;;;;;;;27.57;15.60;;;;;;;;;;5073481;28;20170;-66
2021/12/19 06:14:22;;;;;;;25.93;16.27;;;;;;;;;;5073406;28;20839;-65
2021/12/19 06:16:49;;;;;;;26.17;17.70;;;;;;;;;;5072157;28;20410;-66
2021/12/19 06:19:15;;;;;;;22.98;14.73;;;;;;;;;;5073427;28;20572;-65
2021/12/19 06:21:40;;;;;;;27.13;15.90;;;;;;;;;;5073320;28;20172;-65
2021/12/19 06:24:06;;;;;;;18.43;12.63;;;;;;;;;;5073283;28;20377;-65
2021/12/19 06:26:35;;;;;;;21.40;12.60;;;;;;;;;;5073266;28;20411;-65
2021/12/19 06:29:02;;;;;;;21.33;15.00;;;;;;;;;;5073086;28;20875;-65
2021/12/19 06:31:28;;;;;;;13.10;11.15;;;;;;;;;;5073496;28;20535;-65
2021/12/19 06:33:54;;;;;;;14.50;11.47;;;;;;;;;;5073166;28;20239;-65
2021/12/19 06:36:20;;;;;;;13.80;11.00;;;;;;;;;;5073167;28;20398;-65
2021/12/19 06:38:46;;;;;;;12.70;9.68;;;;;;;;;;5073102;28;20419;-65
2021/12/19 06:41:12;;;;;;;12.23;10.80;;;;;;;;;;5073064;28;20187;-65
2021/12/19 06:43:38;;;;;;;12.50;10.10;;;;;;;;;;5073018;28;20179;-66
2021/12/19 06:46:04;;;;;;;12.07;9.40;;;;;;;;;;5073137;28;20610;-66
2021/12/19 06:48:30;;;;;;;15.35;11.07;;;;;;;;;;5072911;28;20384;-65
2021/12/19 06:50:56;;;;;;;15.30;11.37;;;;;;;;;;5073087;28;20170;-65
2021/12/19 06:53:22;;;;;;;14.90;11.75;;;;;;;;;;5072918;28;20406;-65
2021/12/19 06:55:49;;;;;;;14.30;11.73;;;;;;;;;;5072870;28;20237;-65
2021/12/19 06:58:15;;;;;;;16.73;11.32;;;;;;;;;;5072934;28;20164;-65
2021/12/19 07:00:41;;;;;;;15.05;11.85;;;;;;;;;;5072871;28;20231;-65
2021/12/19 07:03:09;;;;;;;13.73;11.50;;;;;;;;;;5072875;28;20536;-65
2021/12/19 07:05:35;;;;;;;14.10;11.18;;;;;;;;;;5073095;28;20172;-65
2021/12/19 07:08:01;;;;;;;16.00;11.70;;;;;;;;;;5072835;28;20558;-65
2021/12/19 07:10:27;;;;;;;21.73;14.17;;;;;;;;;;5072787;28;20470;-65
2021/12/19 07:12:53;;;;;;;17.73;12.33;;;;;;;;;;5072757;28;20477;-65
2021/12/19 07:15:19;;;;;;;16.23;11.23;;;;;;;;;;5072782;28;20429;-65
2021/12/19 07:17:45;;;;;;;17.52;11.90;;;;;;;;;;5073010;28;20175;-64
2021/12/19 07:20:12;;;;;;;17.27;12.35;;;;;;;;;;5074683;28;20203;-68
2021/12/19 07:22:38;;;;;;;14.50;11.55;;;;;;;;;;5076349;28;20294;-66
2021/12/19 07:25:04;;;;;;;13.20;11.05;;;;;;;;;;5076332;28;20196;-68
2021/12/19 07:27:30;;;;;;;13.00;11.43;;;;;;;;;;5076242;28;20160;-65
2021/12/19 07:29:57;;;;;;;14.23;11.40;;;;;;;;;;5076196;28;20645;-66
2021/12/19 07:32:24;;;;;;;25.50;17.95;;;;;;;;;;5076088;28;20371;-65
2021/12/19 07:34:50;;;;;;;19.25;14.60;;;;;;;;;;5076065;28;20195;-66
2021/12/19 07:37:18;;;;;;;19.40;15.13;;;;;;;;;;5076075;28;20163;-66
2021/12/19 07:39:54;;;;;;;26.95;16.40;;;;;;;;;;5075900;28;20205;-66
2021/12/19 07:42:20;;;;;;;18.70;14.55;;;;;;;;;;5076229;28;20163;-65
2021/12/19 07:44:46;;;;;;;25.50;16.60;;;;;;;;;;5075892;28;20638;-64
2021/12/19 07:47:12;;;;;;;21.27;15.32;;;;;;;;;;5075882;28;20174;-64
2021/12/19 07:49:38;;;;;;;23.00;15.10;;;;;;;;;;5076112;28;20631;-64
2021/12/19 07:52:04;;;;;;;24.83;15.55;;;;;;;;;;5075746;28;20168;-64
2021/12/19 07:54:30;;;;;;;20.50;14.40;;;;;;;;;;5075710;28;20163;-62
2021/12/19 07:56:56;;;;;;;21.70;15.30;;;;;;;;;;5075860;28;20186;-64
2021/12/19 07:59:22;;;;;;;24.03;14.30;;;;;;;;;;5075611;28;20726;-64
2021/12/19 08:01:48;;;;;;;19.83;15.43;;;;;;;;;;5075605;28;20391;-64
2021/12/19 08:04:15;;;;;;;25.00;17.50;;;;;;;;;;5075622;28;20402;-66
2021/12/19 08:06:40;;;;;;;23.27;15.95;;;;;;;;;;5075341;28;20406;-65
2021/12/19 08:09:09;;;;;;;27.20;17.07;;;;;;;;;;5074002;28;20272;-65
2021/12/19 08:11:40;;;;;;;21.33;15.98;;;;;;;;;;5075600;28;20434;-64
2021/12/19 08:14:06;;;;;;;18.48;13.80;;;;;;;;;;5075566;28;20548;-65
2021/12/19 08:16:32;;;;;;;21.25;14.88;;;;;;;;;;5075359;28;20172;-65
2021/12/19 08:18:58;;;;;;;23.38;16.30;;;;;;;;;;5075203;28;20668;-65
2021/12/19 08:21:24;;;;;;;20.20;14.57;;;;;;;;;;5073950;28;20172;-66
2021/12/19 08:23:50;;;;;;;19.70;15.43;;;;;;;;;;5075170;28;20809;-67
2021/12/19 08:26:16;;;;;;;19.58;15.52;;;;;;;;;;5073866;28;20402;-67
2021/12/19 08:28:42;;;;;;;21.10;16.55;;;;;;;;;;5075039;28;20183;-65
2021/12/19 08:31:08;;;;;;;19.00;14.63;;;;;;;;;;5075020;28;20172;-64
2021/12/19 08:33:34;;;;;;;20.90;15.38;;;;;;;;;;5074910;28;20510;-64
2021/12/19 08:36:01;;;;;;;27.30;19.10;;;;;;;;;;5074880;28;20651;-64
2021/12/19 08:38:28;;;;;;;22.55;17.02;;;;;;;;;;5074798;28;20488;-64
2021/12/19 08:40:55;;;;;;;24.35;15.77;;;;;;;;;;5074818;28;20204;-64
2021/12/19 08:43:21;;;;;;;22.77;15.55;;;;;;;;;;5074688;28;20160;-65
2021/12/19 08:45:47;;;;;;;22.92;14.98;;;;;;;;;;5073408;28;20176;-65
2021/12/19 08:48:13;;;;;;;22.67;16.10;;;;;;;;;;5074625;28;20159;-65
2021/12/19 08:50:40;;;;;;;26.95;18.25;;;;;;;;;;5074630;28;20176;-65
2021/12/19 08:53:06;;;;;;;22.90;16.52;;;;;;;;;;5073219;28;20168;-65
2021/12/19 08:55:33;;;;;;;27.60;17.95;;;;;;;;;;5074508;28;20164;-64
2021/12/19 08:57:59;;;;;;;21.58;16.00;;;;;;;;;;5074457;28;20168;-65
2021/12/19 09:00:25;;;;;;;21.20;15.07;;;;;;;;;;5073065;28;20650;-64
2021/12/19 09:02:53;;;;;;;20.85;16.45;;;;;;;;;;5073003;28;20418;-65
2021/12/19 09:05:20;;;;;;;18.60;14.80;;;;;;;;;;5073118;28;20184;-65
2021/12/19 09:07:46;;;;;;;21.10;15.65;;;;;;;;;;5074319;28;20164;-64
2021/12/19 09:10:13;;;;;;;19.65;15.77;;;;;;;;;;5074151;28;20626;-66
2021/12/19 09:12:39;;;;;;;21.35;15.48;;;;;;;;;;5074381;28;20259;-64
2021/12/19 09:15:05;;;;;;;19.77;15.25;;;;;;;;;;5074272;28;20310;-64
2021/12/19 09:17:31;;;;;;;24.10;17.38;;;;;;;;;;5074184;28;20164;-65
2021/12/19 09:19:57;;;;;;;22.40;16.42;;;;;;;;;;5073927;28;20200;-65
2021/12/19 09:22:24;;;;;;;21.20;15.85;;;;;;;;;;5074048;28;20211;-64
2021/12/19 09:24:50;;;;;;;21.00;15.25;;;;;;;;;;5073916;28;20630;-64
2021/12/19 09:27:16;;;;;;;22.50;16.70;;;;;;;;;;5074093;28;20210;-64
2021/12/19 09:29:42;;;;;;;23.90;16.95;;;;;;;;;;5073891;28;20406;-64
2021/12/19 09:32:08;;;;;;;19.85;15.40;;;;;;;;;;5073899;28;20200;-64
2021/12/19 09:34:35;;;;;;;23.60;16.55;;;;;;;;;;5073930;28;20172;-64
2021/12/19 09:37:01;;;;;;;23.58;17.42;;;;;;;;;;5073784;28;20233;-64
2021/12/19 09:39:27;;;;;;;22.80;16.20;;;;;;;;;;5073778;28;20662;-65
2021/12/19 09:41:55;;;;;;;21.05;15.95;;;;;;;;;;5073533;28;20373;-64
2021/12/19 09:44:22;;;;;;;23.58;16.58;;;;;;;;;;5073680;28;20171;-63
2021/12/19 09:46:49;;;;;;;22.42;16.08;;;;;;;;;;5073744;28;20195;-64
2021/12/19 09:49:16;;;;;;;23.75;17.65;;;;;;;;;;5072422;28;20171;-64
2021/12/19 09:51:42;;;;;;;19.92;15.40;;;;;;;;;;5073991;28;20638;-65
2021/12/19 09:54:09;;;;;;;20.23;15.40;;;;;;;;;;5073964;28;20195;-63
2021/12/19 09:56:35;;;;;;;22.73;16.63;;;;;;;;;;5073567;28;20174;-65
2021/12/19 09:59:03;;;;;;;22.98;16.65;;;;;;;;;;5073337;28;20204;-64
2021/12/19 10:01:31;;;;;;;19.02;14.35;;;;;;;;;;5073546;28;20179;-64
2021/12/19 10:03:57;;;;;;;21.70;15.13;;;;;;;;;;5072143;28;20706;-64
2021/12/19 10:06:27;;;;;;;18.73;14.57;;;;;;;;;;5073386;28;20251;-64
2021/12/19 10:09:11;;;;;;;21.55;16.65;;;;;;;;;;5073216;28;20863;-64
2021/12/19 10:11:59;;;;;;;25.00;18.13;;;;;;;;;;5073348;28;20179;-64
2021/12/19 10:14:26;;;;;;;24.13;16.83;;;;;;;;;;5072104;28;20176;-65
2021/12/19 10:16:52;;;;;;;24.15;17.98;;;;;;;;;;5073321;28;20172;-65
2021/12/19 10:19:18;;;;;;;18.35;14.60;;;;;;;;;;5073238;28;20199;-65
2021/12/19 10:21:44;;;;;;;29.13;18.00;;;;;;;;;;5071986;28;20249;-64
2021/12/19 10:24:28;;;;;;;22.27;15.73;;;;;;;;;;5072215;28;20540;-64
2021/12/19 10:26:54;;;;;;;25.75;16.65;;;;;;;;;;5073127;28;20217;-65
2021/12/19 10:29:20;;;;;;;22.13;15.15;;;;;;;;;;5073177;28;20171;-65
2021/12/19 10:32:02;;;;;;;24.10;16.23;;;;;;;;;;5072027;28;20550;-64
2021/12/19 10:34:28;;;;;;;20.13;14.88;;;;;;;;;;5073208;28;20446;-65
2021/12/19 10:36:54;;;;;;;22.90;16.53;;;;;;;;;;5073156;28;20178;-64
2021/12/19 10:39:21;;;;;;;26.07;17.70;;;;;;;;;;5073067;28;20436;-64
2021/12/19 10:41:57;;;;;;;23.98;16.85;;;;;;;;;;5073154;28;20498;-65
2021/12/19 10:47:23;;;;;;;22.10;14.07;;;;;;;;;;5073070;28;20175;-64
2021/12/19 10:49:49;;;;;;;19.40;14.05;;;;;;;;;;5073051;28;20167;-65
2021/12/19 10:52:15;;;;;;;19.05;14.18;;;;;;;;;;5073030;28;20307;-64
2021/12/19 10:54:58;;;;;;;18.30;14.27;;;;;;;;;;5074327;28;20168;-65
2021/12/19 10:57:30;;;;;;;21.42;15.43;;;;;;;;;;5077046;28;20398;-66
2021/12/19 10:59:56;;;;;;;18.38;14.00;;;;;;;;;;5076702;28;20207;-66
2021/12/19 11:02:38;;;;;;;23.30;15.33;;;;;;;;;;5076766;28;20156;-66
2021/12/19 11:05:05;;;;;;;19.10;13.82;;;;;;;;;;5076654;28;20413;-66
2021/12/19 11:07:31;;;;;;;20.40;13.85;;;;;;;;;;5076633;28;20227;-66
2021/12/19 11:09:57;;;;;;;22.00;15.02;;;;;;;;;;5076460;28;20223;-67
2021/12/19 11:12:23;;;;;;;20.98;14.38;;;;;;;;;;5076540;28;20280;-66
2021/12/19 11:14:49;;;;;;;20.23;15.35;;;;;;;;;;5076446;28;20179;-67
2021/12/19 11:17:15;;;;;;;19.63;14.33;;;;;;;;;;5076444;28;20175;-67
2021/12/19 11:19:41;;;;;;;21.75;14.68;;;;;;;;;;5076353;28;20465;-67
2021/12/19 11:22:08;;;;;;;20.27;14.52;;;;;;;;;;5076393;28;20172;-66
2021/12/19 11:24:34;;;;;;;23.25;15.65;;;;;;;;;;5076352;28;20164;-67
2021/12/19 11:27:01;;;;;;;20.30;15.93;;;;;;;;;;5076283;28;20229;-67
2021/12/19 11:29:28;;;;;;;19.40;15.13;;;;;;;;;;5076209;28;20410;-66
2021/12/19 11:31:59;;;;;;;21.48;15.05;;;;;;;;;;5076156;28;20167;-67
2021/12/19 11:34:37;;;;;;;19.83;14.88;;;;;;;;;;5076068;28;20194;-67
2021/12/19 11:37:10;;;;;;;23.73;16.02;;;;;;;;;;5075987;28;20175;-67
2021/12/19 11:39:42;;;;;;;22.50;16.45;;;;;;;;;;5075964;28;20541;-67
2021/12/19 11:42:18;;;;;;;20.23;15.02;;;;;;;;;;5075917;28;20167;-66
2021/12/19 11:47:44;;;;;;;23.42;15.57;;;;;;;;;;5076094;28;20175;-68
2021/12/19 11:50:24;;;;;;;23.13;15.60;;;;;;;;;;5076130;28;20156;-68
2021/12/19 11:52:51;;;;;;;22.55;15.75;;;;;;;;;;5075808;28;20156;-68
2021/12/19 11:55:18;;;;;;;23.25;15.80;;;;;;;;;;5076080;28;20221;-68
2021/12/19 11:58:04;;;;;;;23.30;15.88;;;;;;;;;;5075683;28;20160;-68
2021/12/19 12:00:32;;;;;;;23.08;14.68;;;;;;;;;;5074113;28;20625;-68
2021/12/19 12:03:13;;;;;;;19.77;14.32;;;;;;;;;;5075618;28;20166;-67
2021/12/19 12:05:43;;;;;;;22.52;15.18;;;;;;;;;;5075057;28;20206;-69
2021/12/19 12:08:11;;;;;;;23.10;15.88;;;;;;;;;;5075525;28;20160;-67
2021/12/19 12:10:46;;;;;;;21.15;15.70;;;;;;;;;;5075350;28;20288;-69
2021/12/19 12:13:33;;;;;;;24.25;15.75;;;;;;;;;;5075492;28;20190;-68
2021/12/19 12:18:43;;;;;;;22.38;14.55;;;;;;;;;;5075684;28;20619;-69
2021/12/19 12:24:03;;;;;;;24.27;17.67;;;;;;;;;;5075503;28;20172;-69
2021/12/19 12:26:36;;;;;;;24.08;16.85;;;;;;;;;;5075485;28;20172;-69
2021/12/19 12:29:02;;;;;;;26.30;17.95;;;;;;;;;;5073734;28;20540;-69
2021/12/19 12:31:28;;;;;;;22.25;15.77;;;;;;;;;;5075104;28;20255;-69
2021/12/19 12:33:55;;;;;;;28.33;17.60;;;;;;;;;;5075067;28;20247;-67
2021/12/19 12:36:21;;;;;;;20.30;16.30;;;;;;;;;;5075203;28;20422;-67
2021/12/19 12:38:50;;;;;;;37.22;21.77;;;;;;;;;;5074949;28;20163;-66
2021/12/19 12:41:40;;;;;;;30.10;19.75;;;;;;;;;;5074730;28;20210;-67
2021/12/19 12:44:13;;;;;;;31.13;19.95;;;;;;;;;;5074752;28;20645;-67
2021/12/19 12:46:39;;;;;;;39.22;23.30;;;;;;;;;;5074723;28;20168;-67
2021/12/19 12:49:06;;;;;;;56.10;28.38;;;;;;;;;;5074551;28;20242;-67
2021/12/19 12:51:38;;;;;;;32.55;21.55;;;;;;;;;;5074902;28;20195;-67
2021/12/19 12:54:12;;;;;;;34.35;22.98;;;;;;;;;;5074480;28;20175;-67
2021/12/19 12:56:48;;;;;;;362.95;111.85;;;;;;;;;;5074466;28;20572;-67
2021/12/19 12:59:15;;;;;;;75.53;35.60;;;;;;;;;;5074382;28;20197;-67
2021/12/19 13:01:45;;;;;;;40.65;25.38;;;;;;;;;;5074395;28;20176;-67
2021/12/19 13:04:15;;;;;;;31.80;21.10;;;;;;;;;;5074436;28;20157;-68
2021/12/19 13:06:41;;;;;;;38.10;24.67;;;;;;;;;;5074327;28;20167;-67
2021/12/19 13:09:11;;;;;;;32.93;21.93;;;;;;;;;;5074127;28;20678;-67
2021/12/19 13:11:37;;;;;;;36.70;22.52;;;;;;;;;;5074262;28;20536;-67
2021/12/19 13:14:10;;;;;;;32.50;21.30;;;;;;;;;;5074074;28;20171;-67
2021/12/19 13:16:43;;;;;;;25.33;18.65;;;;;;;;;;5073761;28;20254;-67
2021/12/19 13:19:09;;;;;;;29.83;20.25;;;;;;;;;;5074167;28;20226;-67
2021/12/19 13:21:56;;;;;;;33.42;23.10;;;;;;;;;;5074115;28;20171;-67
2021/12/19 13:24:24;;;;;;;29.70;18.98;;;;;;;;;;5074094;28;20258;-67
2021/12/19 13:27:02;;;;;;;29.90;19.85;;;;;;;;;;5073979;28;20162;-67
2021/12/19 13:29:29;;;;;;;34.38;22.58;;;;;;;;;;5074142;28;20183;-67
2021/12/19 13:31:55;;;;;;;31.05;20.35;;;;;;;;;;5073836;28;20247;-66
2021/12/19 13:34:21;;;;;;;24.50;17.27;;;;;;;;;;5073915;28;20251;-66
2021/12/19 13:37:07;;;;;;;24.37;17.73;;;;;;;;;;5073913;28;20901;-66
2021/12/19 13:39:33;;;;;;;28.17;18.98;;;;;;;;;;5073723;28;20504;-67
2021/12/19 13:42:14;;;;;;;31.05;21.42;;;;;;;;;;5073697;28;20619;-67
2021/12/19 13:44:40;;;;;;;35.17;23.15;;;;;;;;;;5073634;28;20217;-66
2021/12/19 13:47:11;;;;;;;28.73;19.05;;;;;;;;;;5073681;28;20188;-66
2021/12/19 13:49:37;;;;;;;22.80;16.35;;;;;;;;;;5073632;28;20176;-66
2021/12/19 13:52:05;;;;;;;26.25;19.08;;;;;;;;;;5073537;28;20543;-67
2021/12/19 13:54:31;;;;;;;25.15;17.95;;;;;;;;;;5073759;28;20172;-66
2021/12/19 13:56:58;;;;;;;26.52;18.98;;;;;;;;;;5073425;28;20620;-66
2021/12/19 13:59:24;;;;;;;26.05;18.98;;;;;;;;;;5071993;28;20329;-67
2021/12/19 14:01:51;;;;;;;27.60;19.70;;;;;;;;;;5073434;28;20160;-66
2021/12/19 14:04:20;;;;;;;26.25;18.88;;;;;;;;;;5073433;28;20159;-66
2021/12/19 14:06:46;;;;;;;22.73;16.52;;;;;;;;;;5073412;28;20193;-67
2021/12/19 14:09:14;;;;;;;24.35;16.85;;;;;;;;;;5073314;28;20242;-67
2021/12/19 14:11:43;;;;;;;27.60;19.50;;;;;;;;;;5073426;28;20528;-66
2021/12/19 14:16:58;;;;;;;23.67;16.90;;;;;;;;;;5073313;28;20525;-67
2021/12/19 14:19:29;;;;;;;26.08;18.48;;;;;;;;;;5073245;28;20551;-66
2021/12/19 14:22:09;;;;;;;24.00;18.38;;;;;;;;;;5073256;28;20176;-66
2021/12/19 14:24:35;;;;;;;27.60;18.85;;;;;;;;;;5073287;28;20201;-65
2021/12/19 14:27:19;;;;;;;21.10;15.93;;;;;;;;;;5073287;28;20176;-65
2021/12/19 14:30:04;;;;;;;22.83;16.45;;;;;;;;;;5076302;28;20888;-66
2021/12/19 14:32:32;;;;;;;23.15;16.42;;;;;;;;;;5077360;28;20171;-67
2021/12/19 14:35:06;;;;;;;19.83;15.35;;;;;;;;;;5077321;28;20188;-67
2021/12/19 14:37:43;;;;;;;25.98;16.20;;;;;;;;;;5077234;28;20179;-72
2021/12/19 14:40:12;;;;;;;21.88;15.45;;;;;;;;;;5077125;28;20199;-71
2021/12/19 14:42:41;;;;;;;29.80;18.90;;;;;;;;;;5077140;28;20176;-70
2021/12/19 14:45:26;;;;;;;29.85;18.95;;;;;;;;;;5077045;28;20183;-68
2021/12/19 14:48:01;;;;;;;25.65;17.50;;;;;;;;;;5077023;28;20318;-69
2021/12/19 14:50:30;;;;;;;23.27;14.75;;;;;;;;;;5076948;28;20164;-69
2021/12/19 14:53:01;;;;;;;22.05;15.40;;;;;;;;;;5076962;28;20172;-70
2021/12/19 14:55:29;;;;;;;24.63;14.43;;;;;;;;;;5076944;28;20168;-70
2021/12/19 14:57:54;;;;;;;21.38;14.23;;;;;;;;;;5076842;28;20171;-69
2021/12/19 15:00:21;;;;;;;26.90;17.70;;;;;;;;;;5076675;28;20237;-70
2021/12/19 15:02:47;;;;;;;24.63;15.55;;;;;;;;;;5076697;28;20455;-69
2021/12/19 15:05:13;;;;;;;26.50;16.98;;;;;;;;;;5076626;28;20175;-71
2021/12/19 15:07:43;;;;;;;33.57;19.50;;;;;;;;;;5076634;28;20168;-69
2021/12/19 15:10:13;;;;;;;21.13;15.48;;;;;;;;;;5076442;28;20992;-68
2021/12/19 15:12:39;;;;;;;21.38;14.85;;;;;;;;;;5076495;28;20241;-68
2021/12/19 15:15:06;;;;;;;21.90;15.10;;;;;;;;;;5076481;28;20180;-67
2021/12/19 15:17:32;;;;;;;22.13;14.05;;;;;;;;;;5076380;28;20171;-67
2021/12/19 15:19:58;;;;;;;34.55;20.17;;;;;;;;;;5076204;28;20273;-68
2021/12/19 15:22:24;;;;;;;25.33;15.80;;;;;;;;;;5076339;28;20171;-67
2021/12/19 15:24:50;;;;;;;29.13;16.60;;;;;;;;;;5074947;28;20638;-67
2021/12/19 15:27:18;;;;;;;22.90;15.10;;;;;;;;;;5074993;28;20278;-67
2021/12/19 15:29:44;;;;;;;18.80;14.52;;;;;;;;;;5076118;28;20417;-67
2021/12/19 15:32:12;;;;;;;22.80;15.35;;;;;;;;;;5076118;28;20164;-68
2021/12/19 15:34:38;;;;;;;25.48;16.83;;;;;;;;;;5076113;28;20168;-67
2021/12/19 15:37:04;;;;;;;30.05;18.75;;;;;;;;;;5076074;28;20221;-68